sensor_id;sensor_type;location;lat;lon;timestamp;pressure;altitude;pressure_sealevel;temperature;humidity
70250;BME280;57644;48.416;-123.374;2022-10-31T00:00:25;101468.00;;;3.22;100.00
70250;BME280;57644;48.416;-123.374;2022-10-31T00:02:56;101461.34;;;3.25;100.00
70250;BME280;57644;48.416;-123.374;2022-10-31T00:05:26;101450.86;;;3.18;100.00
70250;BME280;57644;48.416;-123.374;2022-10-31T00:07:56;101443.78;;;3.15;100.00
70250;BME280;57644;48.416;-123.374;2022-10-31T00:10:26;101438.58;;;3.06;100.00
70250;BME280;57644;48.416;-123.374;2022-10-31T00:12:57;101442.77;;;3.04;100.00
70250;BME280;57644;48.416;-123.374;2022-10-31T00:15:27;101454.85;;;3.06;100.00
70250;BME280;57644;48.416;-123.374;2022-10-31T00:17:59;101459.84;;;3.06;100.00
70250;BME280;57644;48.416;-123.374;2022-10-31T00:20:28;101458.37;;;3.02;100.00
70250;BME280;57644;48.416;-123.374;2022-10-31T00:22:59;101461.70;;;2.96;100.00
70250;BME280;57644;48.416;-123.374;2022-10-31T00:25:32;101460.52;;;2.98;100.00
70250;BME280;57644;48.416;-123.374;2022-10-31T00:30:29;101424.50;;;2.70;100.00
70250;BME280;57644;48.416;-123.374;2022-10-31T00:32:59;101410.86;;;2.66;100.00
70250;BME280;57644;48.416;-123.374;2022-10-31T00:35:29;101420.89;;;2.65;100.00
70250;BME280;57644;48.416;-123.374;2022-10-31T00:38:00;101430.44;;;2.69;100.00
70250;BME280;57644;48.416;-123.374;2022-10-31T00:40:30;101432.59;;;2.46;100.00
70250;BME280;57644;48.416;-123.374;2022-10-31T00:43:01;101420.40;;;2.31;100.00
70250;BME280;57644;48.416;-123.374;2022-10-31T00:45:42;101418.04;;;2.35;100.00
70250;BME280;57644;48.416;-123.374;2022-10-31T00:48:02;101414.36;;;2.16;100.00
70250;BME280;57644;48.416;-123.374;2022-10-31T00:50:33;101415.06;;;2.34;100.00
70250;BME280;57644;48.416;-123.374;2022-10-31T00:53:03;101421.39;;;2.32;100.00
70250;BME280;57644;48.416;-123.374;2022-10-31T00:58:03;101394.57;;;2.30;100.00
70250;BME280;57644;48.416;-123.374;2022-10-31T01:00:35;101373.54;;;2.41;100.00
70250;BME280;57644;48.416;-123.374;2022-10-31T01:03:04;101377.04;;;2.54;100.00
70250;BME280;57644;48.416;-123.374;2022-10-31T01:05:34;101389.30;;;2.53;100.00
70250;BME280;57644;48.416;-123.374;2022-10-31T01:08:05;101396.42;;;2.59;100.00
70250;BME280;57644;48.416;-123.374;2022-10-31T01:10:35;101395.69;;;2.66;100.00
70250;BME280;57644;48.416;-123.374;2022-10-31T01:15:45;101414.11;;;2.62;100.00
70250;BME280;57644;48.416;-123.374;2022-10-31T01:18:06;101399.84;;;2.54;100.00
70250;BME280;57644;48.416;-123.374;2022-10-31T01:20:37;101373.82;;;2.61;100.00
70250;BME280;57644;48.416;-123.374;2022-10-31T01:23:07;101366.87;;;2.56;100.00
70250;BME280;57644;48.416;-123.374;2022-10-31T01:25:38;101385.24;;;2.54;100.00
70250;BME280;57644;48.416;-123.374;2022-10-31T01:28:08;101402.40;;;2.53;100.00
70250;BME280;57644;48.416;-123.374;2022-10-31T01:30:38;101401.92;;;2.51;100.00
70250;BME280;57644;48.416;-123.374;2022-10-31T01:33:09;101411.51;;;2.37;100.00
70250;BME280;57644;48.416;-123.374;2022-10-31T01:35:39;101421.56;;;2.35;100.00
70250;BME280;57644;48.416;-123.374;2022-10-31T01:40:42;101390.57;;;2.44;100.00
70250;BME280;57644;48.416;-123.374;2022-10-31T01:43:14;101390.90;;;2.54;100.00
70250;BME280;57644;48.416;-123.374;2022-10-31T01:45:43;101399.01;;;2.57;100.00
70250;BME280;57644;48.416;-123.374;2022-10-31T01:48:15;101388.31;;;2.59;100.00
70250;BME280;57644;48.416;-123.374;2022-10-31T01:50:44;101385.02;;;2.61;100.00
70250;BME280;57644;48.416;-123.374;2022-10-31T01:53:13;101391.94;;;2.66;100.00
70250;BME280;57644;48.416;-123.374;2022-10-31T01:55:45;101401.86;;;2.58;100.00
70250;BME280;57644;48.416;-123.374;2022-10-31T01:58:16;101410.73;;;2.57;100.00
70250;BME280;57644;48.416;-123.374;2022-10-31T02:03:15;101439.22;;;2.44;100.00
70250;BME280;57644;48.416;-123.374;2022-10-31T02:05:45;101433.55;;;2.43;100.00
70250;BME280;57644;48.416;-123.374;2022-10-31T02:08:19;101423.63;;;2.46;100.00
70250;BME280;57644;48.416;-123.374;2022-10-31T02:10:46;101417.62;;;2.47;100.00
70250;BME280;57644;48.416;-123.374;2022-10-31T02:13:21;101408.84;;;2.43;100.00
70250;BME280;57644;48.416;-123.374;2022-10-31T02:15:49;101403.36;;;2.46;100.00
70250;BME280;57644;48.416;-123.374;2022-10-31T02:18:17;101404.96;;;2.45;100.00
70250;BME280;57644;48.416;-123.374;2022-10-31T02:20:57;101399.04;;;2.44;100.00
70250;BME280;57644;48.416;-123.374;2022-10-31T02:23:31;101395.24;;;2.44;100.00
70250;BME280;57644;48.416;-123.374;2022-10-31T02:26:02;101393.68;;;2.47;100.00
70250;BME280;57644;48.416;-123.374;2022-10-31T02:28:27;101385.02;;;2.40;100.00
70250;BME280;57644;48.416;-123.374;2022-10-31T02:33:24;101383.45;;;2.34;100.00
70250;BME280;57644;48.416;-123.374;2022-10-31T02:35:59;101394.35;;;2.40;100.00
70250;BME280;57644;48.416;-123.374;2022-10-31T02:38:29;101397.12;;;2.33;100.00
70250;BME280;57644;48.416;-123.374;2022-10-31T02:40:59;101387.01;;;2.35;100.00
70250;BME280;57644;48.416;-123.374;2022-10-31T02:43:25;101387.47;;;2.34;100.00
70250;BME280;57644;48.416;-123.374;2022-10-31T02:48:27;101382.18;;;2.46;100.00
70250;BME280;57644;48.416;-123.374;2022-10-31T02:50:56;101375.49;;;2.48;100.00
70250;BME280;57644;48.416;-123.374;2022-10-31T02:53:24;101366.74;;;2.47;100.00
70250;BME280;57644;48.416;-123.374;2022-10-31T02:55:59;101367.51;;;2.53;100.00
70250;BME280;57644;48.416;-123.374;2022-10-31T02:58:28;101368.55;;;2.51;100.00
70250;BME280;57644;48.416;-123.374;2022-10-31T03:03:27;101368.33;;;2.56;100.00
70250;BME280;57644;48.416;-123.374;2022-10-31T03:08:33;101355.98;;;2.61;100.00
70250;BME280;57644;48.416;-123.374;2022-10-31T03:10:59;101357.99;;;2.39;100.00
70250;BME280;57644;48.416;-123.374;2022-10-31T03:13:33;101363.77;;;2.51;100.00
70250;BME280;57644;48.416;-123.374;2022-10-31T03:16:02;101372.27;;;2.59;100.00
70250;BME280;57644;48.416;-123.374;2022-10-31T03:18:29;101375.57;;;2.48;100.00
70250;BME280;57644;48.416;-123.374;2022-10-31T03:21:01;101376.55;;;2.58;100.00
70250;BME280;57644;48.416;-123.374;2022-10-31T03:23:29;101379.67;;;2.40;100.00
70250;BME280;57644;48.416;-123.374;2022-10-31T03:26:02;101375.52;;;2.37;100.00
70250;BME280;57644;48.416;-123.374;2022-10-31T03:28:30;101376.75;;;2.39;100.00
70250;BME280;57644;48.416;-123.374;2022-10-31T03:33:31;101371.28;;;2.43;100.00
70250;BME280;57644;48.416;-123.374;2022-10-31T03:36:02;101367.47;;;2.38;100.00
70250;BME280;57644;48.416;-123.374;2022-10-31T03:38:30;101366.92;;;2.37;100.00
70250;BME280;57644;48.416;-123.374;2022-10-31T03:41:03;101365.05;;;2.36;100.00
70250;BME280;57644;48.416;-123.374;2022-10-31T03:43:35;101363.51;;;2.37;100.00
70250;BME280;57644;48.416;-123.374;2022-10-31T03:46:01;101365.78;;;2.39;100.00
70250;BME280;57644;48.416;-123.374;2022-10-31T03:48:36;101361.64;;;2.38;100.00
70250;BME280;57644;48.416;-123.374;2022-10-31T03:51:07;101354.12;;;2.43;100.00
70250;BME280;57644;48.416;-123.374;2022-10-31T03:53:36;101353.31;;;2.48;100.00
70250;BME280;57644;48.416;-123.374;2022-10-31T03:56:09;101349.70;;;2.38;100.00
70250;BME280;57644;48.416;-123.374;2022-10-31T03:58:36;101353.39;;;2.35;100.00
70250;BME280;57644;48.416;-123.374;2022-10-31T04:01:05;101354.12;;;2.32;100.00
70250;BME280;57644;48.416;-123.374;2022-10-31T04:03:36;101351.40;;;2.20;100.00
70250;BME280;57644;48.416;-123.374;2022-10-31T04:06:18;101344.12;;;2.16;100.00
70250;BME280;57644;48.416;-123.374;2022-10-31T04:08:40;101338.98;;;2.19;100.00
70250;BME280;57644;48.416;-123.374;2022-10-31T04:13:37;101335.58;;;2.26;100.00
70250;BME280;57644;48.416;-123.374;2022-10-31T04:16:06;101337.24;;;2.32;100.00
70250;BME280;57644;48.416;-123.374;2022-10-31T04:18:36;101331.11;;;2.40;100.00
70250;BME280;57644;48.416;-123.374;2022-10-31T04:21:08;101327.79;;;2.43;100.00
70250;BME280;57644;48.416;-123.374;2022-10-31T04:23:37;101322.46;;;2.44;100.00
70250;BME280;57644;48.416;-123.374;2022-10-31T04:26:07;101314.03;;;2.38;100.00
70250;BME280;57644;48.416;-123.374;2022-10-31T04:28:37;101301.14;;;2.41;100.00
70250;BME280;57644;48.416;-123.374;2022-10-31T04:31:10;101297.09;;;2.44;100.00
70250;BME280;57644;48.416;-123.374;2022-10-31T04:33:38;101294.23;;;2.42;100.00
70250;BME280;57644;48.416;-123.374;2022-10-31T04:36:09;101289.57;;;2.43;100.00
70250;BME280;57644;48.416;-123.374;2022-10-31T04:38:38;101277.91;;;2.43;100.00
70250;BME280;57644;48.416;-123.374;2022-10-31T04:41:09;101271.60;;;2.36;100.00
70250;BME280;57644;48.416;-123.374;2022-10-31T04:43:39;101270.63;;;2.39;100.00
70250;BME280;57644;48.416;-123.374;2022-10-31T04:46:10;101267.26;;;2.36;100.00
70250;BME280;57644;48.416;-123.374;2022-10-31T04:48:41;101259.11;;;2.40;100.00
70250;BME280;57644;48.416;-123.374;2022-10-31T04:51:11;101256.47;;;2.41;100.00
70250;BME280;57644;48.416;-123.374;2022-10-31T04:53:40;101257.43;;;2.35;100.00
70250;BME280;57644;48.416;-123.374;2022-10-31T04:56:11;101259.29;;;2.36;100.00
70250;BME280;57644;48.416;-123.374;2022-10-31T04:58:47;101262.51;;;2.36;100.00
70250;BME280;57644;48.416;-123.374;2022-10-31T05:01:13;101264.38;;;2.43;100.00
70250;BME280;57644;48.416;-123.374;2022-10-31T05:03:42;101262.50;;;2.42;100.00
70250;BME280;57644;48.416;-123.374;2022-10-31T05:06:13;101263.05;;;2.43;100.00
70250;BME280;57644;48.416;-123.374;2022-10-31T05:08:43;101258.91;;;2.45;100.00
70250;BME280;57644;48.416;-123.374;2022-10-31T05:11:14;101260.30;;;2.53;100.00
70250;BME280;57644;48.416;-123.374;2022-10-31T05:13:49;101256.48;;;2.56;100.00
70250;BME280;57644;48.416;-123.374;2022-10-31T05:16:14;101259.01;;;2.56;100.00
70250;BME280;57644;48.416;-123.374;2022-10-31T05:18:45;101256.81;;;2.65;100.00
70250;BME280;57644;48.416;-123.374;2022-10-31T05:21:15;101259.46;;;2.65;100.00
70250;BME280;57644;48.416;-123.374;2022-10-31T05:23:46;101262.42;;;2.67;100.00
70250;BME280;57644;48.416;-123.374;2022-10-31T05:26:17;101260.21;;;2.69;100.00
70250;BME280;57644;48.416;-123.374;2022-10-31T05:31:26;101251.92;;;2.64;100.00
70250;BME280;57644;48.416;-123.374;2022-10-31T05:33:47;101248.30;;;2.71;100.00
70250;BME280;57644;48.416;-123.374;2022-10-31T05:36:17;101241.65;;;2.69;100.00
70250;BME280;57644;48.416;-123.374;2022-10-31T05:38:49;101241.76;;;2.65;100.00
70250;BME280;57644;48.416;-123.374;2022-10-31T05:41:18;101243.62;;;2.61;100.00
70250;BME280;57644;48.416;-123.374;2022-10-31T05:43:49;101237.57;;;2.52;100.00
70250;BME280;57644;48.416;-123.374;2022-10-31T05:46:19;101234.65;;;2.53;100.00
70250;BME280;57644;48.416;-123.374;2022-10-31T05:48:49;101235.18;;;2.44;100.00
70250;BME280;57644;48.416;-123.374;2022-10-31T05:51:20;101230.88;;;2.45;100.00
70250;BME280;57644;48.416;-123.374;2022-10-31T05:53:50;101223.66;;;2.47;100.00
70250;BME280;57644;48.416;-123.374;2022-10-31T05:56:35;101217.63;;;2.46;100.00
70250;BME280;57644;48.416;-123.374;2022-10-31T05:58:51;101211.60;;;2.53;100.00
70250;BME280;57644;48.416;-123.374;2022-10-31T06:01:22;101206.66;;;2.60;100.00
70250;BME280;57644;48.416;-123.374;2022-10-31T06:03:52;101198.84;;;2.64;100.00
70250;BME280;57644;48.416;-123.374;2022-10-31T06:06:22;101197.07;;;2.58;100.00
70250;BME280;57644;48.416;-123.374;2022-10-31T06:08:52;101198.52;;;2.59;100.00
70250;BME280;57644;48.416;-123.374;2022-10-31T06:11:24;101196.81;;;2.55;100.00
70250;BME280;57644;48.416;-123.374;2022-10-31T06:14:03;101191.40;;;2.62;100.00
70250;BME280;57644;48.416;-123.374;2022-10-31T06:16:24;101192.09;;;2.61;100.00
70250;BME280;57644;48.416;-123.374;2022-10-31T06:18:54;101191.82;;;2.66;100.00
70250;BME280;57644;48.416;-123.374;2022-10-31T06:21:25;101185.28;;;2.67;100.00
70250;BME280;57644;48.416;-123.374;2022-10-31T06:23:55;101175.02;;;2.67;100.00
70250;BME280;57644;48.416;-123.374;2022-10-31T06:26:26;101165.13;;;2.61;100.00
70250;BME280;57644;48.416;-123.374;2022-10-31T06:28:56;101157.71;;;2.63;100.00
70250;BME280;57644;48.416;-123.374;2022-10-31T06:31:26;101150.11;;;2.56;100.00
70250;BME280;57644;48.416;-123.374;2022-10-31T06:33:57;101148.20;;;2.37;100.00
70250;BME280;57644;48.416;-123.374;2022-10-31T06:36:27;101148.93;;;2.39;100.00
70250;BME280;57644;48.416;-123.374;2022-10-31T06:38:57;101150.76;;;2.37;100.00
70250;BME280;57644;48.416;-123.374;2022-10-31T06:41:28;101143.32;;;2.44;100.00
70250;BME280;57644;48.416;-123.374;2022-10-31T06:43:58;101140.92;;;2.50;100.00
70250;BME280;57644;48.416;-123.374;2022-10-31T06:46:28;101130.73;;;2.47;100.00
70250;BME280;57644;48.416;-123.374;2022-10-31T06:51:29;101117.73;;;2.27;100.00
70250;BME280;57644;48.416;-123.374;2022-10-31T06:53:59;101117.38;;;2.32;100.00
70250;BME280;57644;48.416;-123.374;2022-10-31T06:56:30;101141.07;;;2.36;100.00
70250;BME280;57644;48.416;-123.374;2022-10-31T06:59:00;101133.65;;;2.39;100.00
70250;BME280;57644;48.416;-123.374;2022-10-31T07:01:30;101124.59;;;2.40;100.00
70250;BME280;57644;48.416;-123.374;2022-10-31T07:04:01;101120.84;;;2.40;100.00
70250;BME280;57644;48.416;-123.374;2022-10-31T07:06:32;101106.75;;;2.10;100.00
70250;BME280;57644;48.416;-123.374;2022-10-31T07:09:04;101085.22;;;1.88;100.00
70250;BME280;57644;48.416;-123.374;2022-10-31T07:11:33;101079.11;;;1.84;100.00
70250;BME280;57644;48.416;-123.374;2022-10-31T07:14:04;101110.32;;;1.99;100.00
70250;BME280;57644;48.416;-123.374;2022-10-31T07:16:34;101134.63;;;2.12;100.00
70250;BME280;57644;48.416;-123.374;2022-10-31T07:19:04;101134.98;;;2.28;100.00
70250;BME280;57644;48.416;-123.374;2022-10-31T07:21:40;101119.83;;;2.37;100.00
70250;BME280;57644;48.416;-123.374;2022-10-31T07:24:05;101116.16;;;2.44;100.00
70250;BME280;57644;48.416;-123.374;2022-10-31T07:26:36;101109.98;;;2.45;100.00
70250;BME280;57644;48.416;-123.374;2022-10-31T07:29:06;101080.49;;;2.31;100.00
70250;BME280;57644;48.416;-123.374;2022-10-31T07:31:36;101056.20;;;2.31;100.00
70250;BME280;57644;48.416;-123.374;2022-10-31T07:34:06;101025.64;;;2.06;100.00
70250;BME280;57644;48.416;-123.374;2022-10-31T07:36:36;100981.62;;;1.87;100.00
70250;BME280;57644;48.416;-123.374;2022-10-31T07:41:37;100989.37;;;1.46;100.00
70250;BME280;57644;48.416;-123.374;2022-10-31T07:44:08;101009.23;;;1.47;100.00
70250;BME280;57644;48.416;-123.374;2022-10-31T07:46:38;101036.74;;;1.58;100.00
70250;BME280;57644;48.416;-123.374;2022-10-31T07:51:38;101012.02;;;1.77;100.00
70250;BME280;57644;48.416;-123.374;2022-10-31T07:54:09;101016.09;;;1.86;100.00
70250;BME280;57644;48.416;-123.374;2022-10-31T07:56:39;101018.58;;;1.94;100.00
70250;BME280;57644;48.416;-123.374;2022-10-31T07:59:10;101035.33;;;2.14;100.00
70250;BME280;57644;48.416;-123.374;2022-10-31T08:01:40;101042.66;;;2.23;100.00
70250;BME280;57644;48.416;-123.374;2022-10-31T08:04:11;101055.96;;;2.29;100.00
70250;BME280;57644;48.416;-123.374;2022-10-31T08:06:41;101081.63;;;2.35;100.00
70250;BME280;57644;48.416;-123.374;2022-10-31T08:09:12;101097.43;;;2.47;100.00
70250;BME280;57644;48.416;-123.374;2022-10-31T08:14:12;101084.11;;;2.41;100.00
70250;BME280;57644;48.416;-123.374;2022-10-31T08:16:43;101062.93;;;2.51;100.00
70250;BME280;57644;48.416;-123.374;2022-10-31T08:19:13;101058.16;;;2.53;100.00
70250;BME280;57644;48.416;-123.374;2022-10-31T08:21:43;101062.83;;;2.49;100.00
70250;BME280;57644;48.416;-123.374;2022-10-31T08:24:14;101058.61;;;2.60;100.00
70250;BME280;57644;48.416;-123.374;2022-10-31T08:26:44;101052.47;;;2.47;100.00
70250;BME280;57644;48.416;-123.374;2022-10-31T08:31:45;101049.03;;;2.44;100.00
70250;BME280;57644;48.416;-123.374;2022-10-31T08:34:15;101041.43;;;2.32;100.00
70250;BME280;57644;48.416;-123.374;2022-10-31T08:36:45;101038.32;;;2.18;100.00
70250;BME280;57644;48.416;-123.374;2022-10-31T08:39:16;101032.48;;;1.95;100.00
70250;BME280;57644;48.416;-123.374;2022-10-31T08:41:46;101025.02;;;2.02;100.00
70250;BME280;57644;48.416;-123.374;2022-10-31T08:44:17;101015.37;;;1.89;100.00
70250;BME280;57644;48.416;-123.374;2022-10-31T08:46:47;101021.56;;;2.02;100.00
70250;BME280;57644;48.416;-123.374;2022-10-31T08:49:18;101028.80;;;2.17;100.00
70250;BME280;57644;48.416;-123.374;2022-10-31T08:51:48;101029.59;;;2.25;100.00
70250;BME280;57644;48.416;-123.374;2022-10-31T08:54:18;101031.62;;;2.34;100.00
70250;BME280;57644;48.416;-123.374;2022-10-31T08:56:54;101022.87;;;2.37;100.00
70250;BME280;57644;48.416;-123.374;2022-10-31T08:59:19;101016.78;;;2.49;100.00
70250;BME280;57644;48.416;-123.374;2022-10-31T09:01:50;101017.54;;;2.22;100.00
70250;BME280;57644;48.416;-123.374;2022-10-31T09:04:28;101026.14;;;2.42;100.00
70250;BME280;57644;48.416;-123.374;2022-10-31T09:06:50;101025.26;;;2.54;99.91
70250;BME280;57644;48.416;-123.374;2022-10-31T09:09:22;101009.13;;;2.67;99.40
70250;BME280;57644;48.416;-123.374;2022-10-31T09:11:51;101002.46;;;2.20;100.00
70250;BME280;57644;48.416;-123.374;2022-10-31T09:14:22;101007.25;;;2.35;100.00
70250;BME280;57644;48.416;-123.374;2022-10-31T09:16:53;101002.90;;;2.29;99.56
70250;BME280;57644;48.416;-123.374;2022-10-31T09:19:22;101004.16;;;2.49;99.53
70250;BME280;57644;48.416;-123.374;2022-10-31T09:22:10;100998.10;;;2.50;99.34
70250;BME280;57644;48.416;-123.374;2022-10-31T09:24:26;100987.57;;;2.26;100.00
70250;BME280;57644;48.416;-123.374;2022-10-31T09:26:54;100978.20;;;2.18;100.00
70250;BME280;57644;48.416;-123.374;2022-10-31T09:29:24;100975.95;;;2.16;100.00
70250;BME280;57644;48.416;-123.374;2022-10-31T09:31:56;100982.37;;;2.22;100.00
70250;BME280;57644;48.416;-123.374;2022-10-31T09:34:24;100986.01;;;2.26;100.00
70250;BME280;57644;48.416;-123.374;2022-10-31T09:36:55;100986.88;;;2.44;100.00
70250;BME280;57644;48.416;-123.374;2022-10-31T09:39:25;100987.85;;;2.51;99.80
70250;BME280;57644;48.416;-123.374;2022-10-31T09:44:31;100982.48;;;2.51;99.16
70250;BME280;57644;48.416;-123.374;2022-10-31T09:47:02;100982.87;;;2.68;98.95
70250;BME280;57644;48.416;-123.374;2022-10-31T09:49:41;100976.86;;;2.77;98.51
70250;BME280;57644;48.416;-123.374;2022-10-31T09:52:04;100970.97;;;2.85;98.10
70250;BME280;57644;48.416;-123.374;2022-10-31T09:54:32;100954.97;;;2.86;97.98
70250;BME280;57644;48.416;-123.374;2022-10-31T09:56:59;100943.95;;;2.86;97.91
70250;BME280;57644;48.416;-123.374;2022-10-31T09:59:33;100939.56;;;2.66;98.66
70250;BME280;57644;48.416;-123.374;2022-10-31T10:02:01;100942.96;;;2.68;98.71
70250;BME280;57644;48.416;-123.374;2022-10-31T10:04:36;100946.01;;;2.71;98.74
70250;BME280;57644;48.416;-123.374;2022-10-31T10:07:02;100936.88;;;2.58;98.86
70250;BME280;57644;48.416;-123.374;2022-10-31T10:09:30;100932.22;;;2.68;98.79
70250;BME280;57644;48.416;-123.374;2022-10-31T10:12:09;100934.18;;;2.64;99.22
70250;BME280;57644;48.416;-123.374;2022-10-31T10:14:41;100931.14;;;2.70;98.59
70250;BME280;57644;48.416;-123.374;2022-10-31T10:17:13;100925.38;;;1.86;100.00
70250;BME280;57644;48.416;-123.374;2022-10-31T10:22:09;100927.51;;;0.95;100.00
70250;BME280;57644;48.416;-123.374;2022-10-31T10:24:43;100924.16;;;1.11;100.00
70250;BME280;57644;48.416;-123.374;2022-10-31T10:27:12;100913.40;;;1.49;100.00
70250;BME280;57644;48.416;-123.374;2022-10-31T10:29:37;100920.71;;;1.19;100.00
70250;BME280;57644;48.416;-123.374;2022-10-31T10:32:09;100933.92;;;1.11;100.00
70250;BME280;57644;48.416;-123.374;2022-10-31T10:34:37;100924.66;;;0.91;100.00
70250;BME280;57644;48.416;-123.374;2022-10-31T10:42:13;100922.96;;;1.50;100.00
70250;BME280;57644;48.416;-123.374;2022-10-31T10:44:39;100931.79;;;1.60;100.00
70250;BME280;57644;48.416;-123.374;2022-10-31T10:47:07;100927.98;;;1.92;100.00
70250;BME280;57644;48.416;-123.374;2022-10-31T10:49:43;100908.00;;;2.13;100.00
70250;BME280;57644;48.416;-123.374;2022-10-31T10:52:13;100904.51;;;2.22;100.00
70250;BME280;57644;48.416;-123.374;2022-10-31T10:54:46;100899.29;;;2.34;100.00
70250;BME280;57644;48.416;-123.374;2022-10-31T11:02:19;100881.07;;;2.45;100.00
70250;BME280;57644;48.416;-123.374;2022-10-31T11:04:54;100873.31;;;2.23;100.00
70250;BME280;57644;48.416;-123.374;2022-10-31T11:07:12;100882.11;;;2.25;100.00
70250;BME280;57644;48.416;-123.374;2022-10-31T11:09:42;100897.08;;;2.01;100.00
70250;BME280;57644;48.416;-123.374;2022-10-31T11:12:19;100881.54;;;1.48;100.00
70250;BME280;57644;48.416;-123.374;2022-10-31T11:14:46;100863.22;;;0.67;100.00
70250;BME280;57644;48.416;-123.374;2022-10-31T11:17:20;100857.81;;;0.66;100.00
70250;BME280;57644;48.416;-123.374;2022-10-31T11:19:42;100845.50;;;0.07;100.00
70250;BME280;57644;48.416;-123.374;2022-10-31T11:22:16;100839.51;;;-0.24;100.00
70250;BME280;57644;48.416;-123.374;2022-10-31T11:24:43;100837.79;;;-0.04;100.00
70250;BME280;57644;48.416;-123.374;2022-10-31T11:29:44;100839.65;;;-0.27;100.00
70250;BME280;57644;48.416;-123.374;2022-10-31T11:32:20;100843.36;;;-0.55;100.00
70250;BME280;57644;48.416;-123.374;2022-10-31T11:34:46;100845.41;;;-0.24;100.00
70250;BME280;57644;48.416;-123.374;2022-10-31T11:37:17;100850.26;;;-0.49;100.00
70250;BME280;57644;48.416;-123.374;2022-10-31T11:39:48;100842.81;;;-0.18;100.00
70250;BME280;57644;48.416;-123.374;2022-10-31T11:42:16;100831.58;;;-0.17;100.00
70250;BME280;57644;48.416;-123.374;2022-10-31T11:44:46;100823.24;;;-0.38;100.00
70250;BME280;57644;48.416;-123.374;2022-10-31T11:49:48;100808.95;;;-1.37;100.00
70250;BME280;57644;48.416;-123.374;2022-10-31T11:52:22;100803.42;;;-0.78;100.00
70250;BME280;57644;48.416;-123.374;2022-10-31T11:54:50;100796.94;;;-0.49;100.00
70250;BME280;57644;48.416;-123.374;2022-10-31T11:57:24;100786.43;;;-0.42;100.00
70250;BME280;57644;48.416;-123.374;2022-10-31T11:59:53;100791.81;;;-0.32;100.00
70250;BME280;57644;48.416;-123.374;2022-10-31T12:02:20;100791.07;;;-0.12;100.00
70250;BME280;57644;48.416;-123.374;2022-10-31T12:04:55;100794.43;;;0.24;100.00
70250;BME280;57644;48.416;-123.374;2022-10-31T12:09:50;100778.10;;;0.08;100.00
70250;BME280;57644;48.416;-123.374;2022-10-31T12:14:58;100754.07;;;0.26;100.00
70250;BME280;57644;48.416;-123.374;2022-10-31T12:17:25;100752.72;;;0.40;100.00
70250;BME280;57644;48.416;-123.374;2022-10-31T12:20:00;100761.56;;;0.71;100.00
70250;BME280;57644;48.416;-123.374;2022-10-31T12:22:30;100770.96;;;0.83;100.00
70250;BME280;57644;48.416;-123.374;2022-10-31T12:25:04;100753.78;;;1.09;100.00
70250;BME280;57644;48.416;-123.374;2022-10-31T12:27:34;100743.32;;;1.30;100.00
70250;BME280;57644;48.416;-123.374;2022-10-31T12:32:32;100730.58;;;1.53;100.00
70250;BME280;57644;48.416;-123.374;2022-10-31T12:35:10;100718.98;;;1.57;100.00
70250;BME280;57644;48.416;-123.374;2022-10-31T12:37:38;100707.54;;;1.72;100.00
70250;BME280;57644;48.416;-123.374;2022-10-31T12:40:05;100705.12;;;1.80;100.00
70250;BME280;57644;48.416;-123.374;2022-10-31T12:42:39;100724.64;;;1.94;100.00
70250;BME280;57644;48.416;-123.374;2022-10-31T12:45:09;100734.90;;;2.02;100.00
70250;BME280;57644;48.416;-123.374;2022-10-31T12:47:42;100736.66;;;2.16;100.00
70250;BME280;57644;48.416;-123.374;2022-10-31T12:50:10;100723.58;;;2.18;100.00
70250;BME280;57644;48.416;-123.374;2022-10-31T12:52:40;100709.40;;;2.19;100.00
70250;BME280;57644;48.416;-123.374;2022-10-31T12:55:09;100704.57;;;2.21;100.00
70250;BME280;57644;48.416;-123.374;2022-10-31T12:57:32;100718.42;;;2.28;100.00
70250;BME280;57644;48.416;-123.374;2022-10-31T13:07:37;100687.70;;;1.38;100.00
70250;BME280;57644;48.416;-123.374;2022-10-31T13:10:05;100647.64;;;0.83;100.00
70250;BME280;57644;48.416;-123.374;2022-10-31T13:15:05;100725.19;;;1.49;100.00
70250;BME280;57644;48.416;-123.374;2022-10-31T13:17:34;100715.70;;;1.66;100.00
70250;BME280;57644;48.416;-123.374;2022-10-31T13:20:14;100714.16;;;1.85;100.00
70250;BME280;57644;48.416;-123.374;2022-10-31T13:22:33;100694.17;;;1.27;100.00
70250;BME280;57644;48.416;-123.374;2022-10-31T13:27:43;100702.52;;;1.87;100.00
70250;BME280;57644;48.416;-123.374;2022-10-31T13:32:41;100690.04;;;2.10;100.00
70250;BME280;57644;48.416;-123.374;2022-10-31T13:35:10;100673.44;;;1.92;100.00
70250;BME280;57644;48.416;-123.374;2022-10-31T13:37:40;100654.97;;;2.03;100.00
70250;BME280;57644;48.416;-123.374;2022-10-31T13:40:14;100654.05;;;2.17;100.00
70250;BME280;57644;48.416;-123.374;2022-10-31T13:42:46;100659.86;;;2.20;100.00
70250;BME280;57644;48.416;-123.374;2022-10-31T13:47:36;100657.89;;;2.29;100.00
70250;BME280;57644;48.416;-123.374;2022-10-31T13:52:39;100650.23;;;2.32;100.00
70250;BME280;57644;48.416;-123.374;2022-10-31T13:57:43;100647.78;;;2.41;100.00
70250;BME280;57644;48.416;-123.374;2022-10-31T14:12:44;100649.33;;;2.69;100.00
70250;BME280;57644;48.416;-123.374;2022-10-31T14:15:18;100646.73;;;2.74;100.00
70250;BME280;57644;48.416;-123.374;2022-10-31T14:17:47;100645.52;;;2.75;100.00
70250;BME280;57644;48.416;-123.374;2022-10-31T14:22:49;100637.32;;;2.75;100.00